Challenger — WDF5742 — position and weather

sailwx.info

Track history (hours):
 
Tides and Currents Weather Stations Pressure Air Temp Water Temp Dewpoint Dewpoint Depression Visibility Wind Speed Wind Dir Waves Ship Positions

Challenger

Owner: INTRACOASTAL MARINE INC, COINJOCK, NC. More information available from US FCC via Universal Licensing System and Coast Guard Vessel Documentation Center.

Last reported at 2018-Jul-13 17:16 UTC. Time now 2018-Jul-18 01:06 UTC.
Position N 36°48' W 076°17'.

Length 21 m; draft 2.8 m.

Type: Tug. MMSI: 367466730.

Date/timePositionNaut miles runAvg speedWind from/ knotsBaromVisibWave heightAir tempDewpointWater temp
2018-Jul-13 17:16N 36°48' W 076°17'1 5.6
2018-Jul-13 17:00N 36°50' W 076°18'2 4.5
2018-Jul-13 16:30N 36°50' W 076°15'1 1.7
2018-Jul-13 15:59N 36°50' W 076°16'3 6.6
2018-Jul-13 15:30N 36°52' W 076°19'1 2.5
2018-Jul-13 14:58N 36°53' W 076°20'0 0.0
2018-Jul-13 14:30N 36°53' W 076°20'0 0.0
2018-Jul-13 13:22N 36°53' W 076°20'0 0.0
2018-Jul-13 12:12N 36°53' W 076°20'0 0.0
2018-Jul-13 11:57N 36°53' W 076°20'0 0.1
2018-Jul-13 11:11N 36°53' W 076°20'2 8.7
2018-Jul-13 11:00N 36°52' W 076°19'4 7.0
2018-Jul-13 10:30N 36°48' W 076°17'0 0.0
2018-Jul-13 00:41N 36°48' W 076°17'1 5.5
2018-Jul-13 00:30N 36°49' W 076°17'4 7.7
2018-Jul-12 23:57N 36°53' W 076°20'0 0.2
2018-Jul-12 23:22N 36°53' W 076°20'0 0.3
2018-Jul-12 22:50N 36°53' W 076°20'0 0.2
2018-Jul-12 22:26N 36°53' W 076°20'0 0.1
2018-Jul-12 21:57N 36°53' W 076°20'0 0.2
2018-Jul-12 21:29N 36°53' W 076°20'2 4.7
2018-Jul-12 20:59N 36°51' W 076°18'1 2.2
2018-Jul-12 20:28N 36°50' W 076°17'0 0.0
2018-Jul-12 20:00N 36°50' W 076°17'0 0.0
2018-Jul-12 19:30N 36°50' W 076°17'0 0.0
2018-Jul-12 19:00N 36°50' W 076°17'0 0.0
2018-Jul-12 18:28N 36°50' W 076°17'0 0.0
2018-Jul-12 18:00N 36°50' W 076°17'0 0.0
2018-Jul-12 17:27N 36°50' W 076°17'0 0.0
2018-Jul-12 17:00N 36°50' W 076°17'0 0.0
2018-Jul-12 16:24N 36°50' W 076°17'0 0.0
2018-Jul-12 16:00N 36°50' W 076°17'0 0.0
2018-Jul-12 15:30N 36°50' W 076°17'0 0.0
2018-Jul-12 15:00N 36°50' W 076°17'0 0.0
2018-Jul-12 14:29N 36°50' W 076°17'0 0.0
2018-Jul-12 14:00N 36°50' W 076°17'0 0.1
2018-Jul-12 13:30N 36°50' W 076°17'2 4.7
2018-Jul-12 13:00N 36°52' W 076°20'1 2.4
2018-Jul-12 12:30N 36°53' W 076°20'0 0.3
2018-Jul-12 12:00N 36°53' W 076°20'0 0.3
2018-Jul-12 11:28N 36°53' W 076°20'3 7.3
2018-Jul-12 11:00N 36°50' W 076°18'2 0.1
2018-Jul-11 21:56N 36°48' W 076°17'0 0.0
2018-Jul-11 21:30N 36°48' W 076°17'0 0.0
2018-Jul-11 21:00N 36°48' W 076°17'0 0.0
2018-Jul-11 20:30N 36°48' W 076°17'0 0.0
2018-Jul-11 20:00N 36°48' W 076°17'0 0.0
2018-Jul-11 19:30N 36°48' W 076°17'0 0.0
2018-Jul-11 19:00N 36°48' W 076°17'0 0.0
2018-Jul-11 18:30N 36°48' W 076°17'0 0.0
2018-Jul-11 18:00N 36°48' W 076°17'0 0.0
2018-Jul-11 17:30N 36°48' W 076°17'0 0.0
2018-Jul-11 17:00N 36°48' W 076°17'0 0.0
2018-Jul-11 16:30N 36°48' W 076°17'  
2018-Jul-07 00:24N 36°48' W 076°17'1 1.3
2018-Jul-07 00:00N 36°49' W 076°17'3 6.8
2018-Jul-06 23:30N 36°52' W 076°20'5 3.8
2018-Jul-06 22:16N 36°57' W 076°20'3 6.0
2018-Jul-06 21:45N 36°54' W 076°20'1 6.0
2018-Jul-06 21:30N 36°52' W 076°20'3 5.7
2018-Jul-06 21:00N 36°50' W 076°17'2 3.7
2018-Jul-06 20:30N 36°51' W 076°19'2 0.2
2018-Jul-06 09:25N 36°53' W 076°20'3 6.8
2018-Jul-06 08:59N 36°51' W 076°18'3 5.5
2018-Jul-06 08:30N 36°50' W 076°15'1 2.7
2018-Jul-06 08:00N 36°50' W 076°17'2 4.0
2018-Jul-06 07:30N 36°48' W 076°17'0 0.0
2018-Jul-05 21:34N 36°48' W 076°17'1 8.2
2018-Jul-05 21:30N 36°49' W 076°17'4 7.9
2018-Jul-05 21:00N 36°52' W 076°20'1 0.2
2018-Jul-05 16:17N 36°53' W 076°20'1 3.7
2018-Jul-05 15:55N 36°52' W 076°20'3 7.7
2018-Jul-05 15:30N 36°50' W 076°18'  
Track history (hours):
 
Tides and Currents Weather Stations Pressure Air Temp Water Temp Dewpoint Dewpoint Depression Visibility Wind Speed Wind Dir Waves Ship Positions

Challenger

Owner: INTRACOASTAL MARINE INC, COINJOCK, NC. More information available from US FCC via Universal Licensing System and Coast Guard Vessel Documentation Center.

Last reported at 2018-Jul-13 17:16 UTC. Time now 2018-Jul-18 01:06 UTC.
Position N 36°48' W 076°17'.

Length 21 m; draft 2.8 m.

Type: Tug. MMSI: 367466730.

Date/timePositionNaut miles runAvg speedWind from/ knotsBaromVisibWave heightAir tempDewpointWater temp
2018-Jul-13 17:16N 36°48' W 076°17'1 5.6
2018-Jul-13 17:00N 36°50' W 076°18'2 4.5
2018-Jul-13 16:30N 36°50' W 076°15'1 1.7
2018-Jul-13 15:59N 36°50' W 076°16'3 6.6
2018-Jul-13 15:30N 36°52' W 076°19'1 2.5
2018-Jul-13 14:58N 36°53' W 076°20'0 0.0
2018-Jul-13 14:30N 36°53' W 076°20'0 0.0
2018-Jul-13 13:22N 36°53' W 076°20'0 0.0
2018-Jul-13 12:12N 36°53' W 076°20'0 0.0
2018-Jul-13 11:57N 36°53' W 076°20'0 0.1
2018-Jul-13 11:11N 36°53' W 076°20'2 8.7
2018-Jul-13 11:00N 36°52' W 076°19'4 7.0
2018-Jul-13 10:30N 36°48' W 076°17'0 0.0
2018-Jul-13 00:41N 36°48' W 076°17'1 5.5
2018-Jul-13 00:30N 36°49' W 076°17'4 7.7
2018-Jul-12 23:57N 36°53' W 076°20'0 0.2
2018-Jul-12 23:22N 36°53' W 076°20'0 0.3
2018-Jul-12 22:50N 36°53' W 076°20'0 0.2
2018-Jul-12 22:26N 36°53' W 076°20'0 0.1
2018-Jul-12 21:57N 36°53' W 076°20'0 0.2
2018-Jul-12 21:29N 36°53' W 076°20'2 4.7
2018-Jul-12 20:59N 36°51' W 076°18'1 2.2
2018-Jul-12 20:28N 36°50' W 076°17'0 0.0
2018-Jul-12 20:00N 36°50' W 076°17'0 0.0
2018-Jul-12 19:30N 36°50' W 076°17'0 0.0
2018-Jul-12 19:00N 36°50' W 076°17'0 0.0
2018-Jul-12 18:28N 36°50' W 076°17'0 0.0
2018-Jul-12 18:00N 36°50' W 076°17'0 0.0
2018-Jul-12 17:27N 36°50' W 076°17'0 0.0
2018-Jul-12 17:00N 36°50' W 076°17'0 0.0
2018-Jul-12 16:24N 36°50' W 076°17'0 0.0
2018-Jul-12 16:00N 36°50' W 076°17'0 0.0
2018-Jul-12 15:30N 36°50' W 076°17'0 0.0
2018-Jul-12 15:00N 36°50' W 076°17'0 0.0
2018-Jul-12 14:29N 36°50' W 076°17'0 0.0
2018-Jul-12 14:00N 36°50' W 076°17'0 0.1
2018-Jul-12 13:30N 36°50' W 076°17'2 4.7
2018-Jul-12 13:00N 36°52' W 076°20'1 2.4
2018-Jul-12 12:30N 36°53' W 076°20'0 0.3
2018-Jul-12 12:00N 36°53' W 076°20'0 0.3
2018-Jul-12 11:28N 36°53' W 076°20'3 7.3
2018-Jul-12 11:00N 36°50' W 076°18'2 0.1
2018-Jul-11 21:56N 36°48' W 076°17'0 0.0
2018-Jul-11 21:30N 36°48' W 076°17'0 0.0
2018-Jul-11 21:00N 36°48' W 076°17'0 0.0
2018-Jul-11 20:30N 36°48' W 076°17'0 0.0
2018-Jul-11 20:00N 36°48' W 076°17'0 0.0
2018-Jul-11 19:30N 36°48' W 076°17'0 0.0
2018-Jul-11 19:00N 36°48' W 076°17'0 0.0
2018-Jul-11 18:30N 36°48' W 076°17'0 0.0
2018-Jul-11 18:00N 36°48' W 076°17'0 0.0
2018-Jul-11 17:30N 36°48' W 076°17'0 0.0
2018-Jul-11 17:00N 36°48' W 076°17'0 0.0
2018-Jul-11 16:30N 36°48' W 076°17'  
2018-Jul-07 00:24N 36°48' W 076°17'1 1.3
2018-Jul-07 00:00N 36°49' W 076°17'3 6.8
2018-Jul-06 23:30N 36°52' W 076°20'5 3.8
2018-Jul-06 22:16N 36°57' W 076°20'3 6.0
2018-Jul-06 21:45N 36°54' W 076°20'1 6.0
2018-Jul-06 21:30N 36°52' W 076°20'3 5.7
2018-Jul-06 21:00N 36°50' W 076°17'2 3.7
2018-Jul-06 20:30N 36°51' W 076°19'2 0.2
2018-Jul-06 09:25N 36°53' W 076°20'3 6.8
2018-Jul-06 08:59N 36°51' W 076°18'3 5.5
2018-Jul-06 08:30N 36°50' W 076°15'1 2.7
2018-Jul-06 08:00N 36°50' W 076°17'2 4.0
2018-Jul-06 07:30N 36°48' W 076°17'0 0.0
2018-Jul-05 21:34N 36°48' W 076°17'1 8.2
2018-Jul-05 21:30N 36°49' W 076°17'4 7.9
2018-Jul-05 21:00N 36°52' W 076°20'1 0.2
2018-Jul-05 16:17N 36°53' W 076°20'1 3.7
2018-Jul-05 15:55N 36°52' W 076°20'3 7.7
2018-Jul-05 15:30N 36°50' W 076°18'  

Dump ship's entire track history